Terminal Aerodrome Forecast
Issued by NWS Wilmington, OH

Current Version | Previous Version | Text Only | Print | Product List | Glossary Off
Versions: 1 2 3 4 5 6 7 8 9 10 11 12 13 14 15 16 17 18 19

000
FTUS41 KILN 100542
TAFDAY
TAF
KDAY 100542Z 1006/1106 29015KT P6SM -SHSN OVC012
     FM100700 27010KT P6SM SCT015 BKN025
     FM101000 23010KT P6SM SCT025 BKN100
     FM101500 23015G22KT P6SM BKN070
     FM102300 24009KT P6SM BKN040 OVC150
     FM110500 27006KT P6SM SCT100=

USA.gov is the U.S. government's official web portal to all federal, state and local government web resources and services.